createdAt,value
2022-08-28T00:01:01.322Z,98490.59
2022-08-28T00:04:04.742Z,98483.47
2022-08-28T00:07:08.851Z,98483.13
2022-08-28T00:10:13.844Z,98482.31
2022-08-28T00:13:20.585Z,98487.00
2022-08-28T00:16:23.543Z,98489.84
2022-08-28T00:19:29.396Z,98493.41
2022-08-28T00:22:34.108Z,98498.09
2022-08-28T00:25:37.329Z,98496.22
2022-08-28T00:28:38.823Z,98501.47
2022-08-28T00:31:41.516Z,98497.91
2022-08-28T00:34:44.387Z,98495.22
2022-08-28T00:37:48.462Z,98500.34
2022-08-28T00:40:54.599Z,98499.56
2022-08-28T00:44:08.268Z,98498.00
2022-08-28T00:47:11.015Z,98494.78
2022-08-28T00:50:17.894Z,98500.25
2022-08-28T00:53:21.366Z,98490.66
2022-08-28T00:56:29.153Z,98496.09
2022-08-28T00:59:31.767Z,98486.09
2022-08-28T01:02:34.447Z,98483.31
2022-08-28T01:05:37.949Z,98477.00
2022-08-28T01:08:44.400Z,98475.41
2022-08-28T01:11:54.906Z,98487.72
2022-08-28T01:15:00.966Z,98486.19
2022-08-28T01:18:08.615Z,98486.97
2022-08-28T01:21:16.860Z,98496.75
2022-08-28T01:24:24.763Z,98491.84
2022-08-28T01:27:28.118Z,98494.13
2022-08-28T01:30:31.880Z,98484.53
2022-08-28T01:33:34.500Z,98483.59
2022-08-28T01:36:37.805Z,98481.50
2022-08-28T01:39:41.840Z,98481.09
2022-08-28T01:42:45.311Z,98488.47
2022-08-28T01:45:53.269Z,98485.50
2022-08-28T01:48:55.945Z,98482.00
2022-08-28T01:51:59.148Z,98492.47
2022-08-28T01:55:05.086Z,98485.78
2022-08-28T01:58:08.882Z,98485.84
2022-08-28T02:01:12.193Z,98487.53
2022-08-28T02:04:14.996Z,98488.38
2022-08-28T02:07:17.830Z,98496.22
2022-08-28T02:10:25.459Z,98497.84
2022-08-28T02:13:28.318Z,98494.69
2022-08-28T02:16:30.933Z,98497.47
2022-08-28T02:19:33.555Z,98497.47
2022-08-28T02:22:36.378Z,98499.44
2022-08-28T02:25:40.441Z,98491.91
2022-08-28T02:28:43.412Z,98492.31
2022-08-28T02:31:46.078Z,98492.66
2022-08-28T02:34:48.688Z,98494.28
2022-08-28T02:37:52.102Z,98497.84
2022-08-28T02:40:58.873Z,98506.16
2022-08-28T02:44:01.499Z,98496.22
2022-08-28T02:47:05.023Z,98503.00
2022-08-28T02:50:09.025Z,98502.25
2022-08-28T02:53:12.171Z,98499.84
2022-08-28T02:56:16.609Z,98503.78
2022-08-28T02:59:19.215Z,98495.09
2022-08-28T03:02:21.816Z,98498.66
2022-08-28T03:05:26.898Z,98491.53
2022-08-28T03:08:30.188Z,98497.41
2022-08-28T03:11:34.802Z,98493.00
2022-08-28T03:14:37.368Z,98502.50
2022-08-28T03:17:40.576Z,98490.63
2022-08-28T03:20:45.530Z,98498.16
2022-08-28T03:23:48.173Z,98496.53
2022-08-28T03:26:52.230Z,98500.91
2022-08-28T03:29:54.884Z,98494.25
2022-08-28T03:32:57.558Z,98498.25
2022-08-28T03:36:00.373Z,98497.84
2022-08-28T03:39:07.792Z,98505.44
2022-08-28T03:42:11.968Z,98501.47
2022-08-28T03:45:16.379Z,98506.56
2022-08-28T03:48:19.521Z,98504.97
2022-08-28T03:51:29.295Z,98506.91
2022-08-28T03:54:32.709Z,98507.69
2022-08-28T03:57:36.943Z,98505.28
2022-08-28T04:00:40.208Z,98504.84
2022-08-28T04:03:42.786Z,98510.78
2022-08-28T04:06:45.385Z,98513.16
2022-08-28T04:09:48.394Z,98515.22
2022-08-28T04:12:53.722Z,98512.84
2022-08-28T04:15:58.273Z,98509.69
2022-08-28T04:19:01.011Z,98510.47
2022-08-28T04:22:03.978Z,98518.41
2022-08-28T04:25:08.321Z,98504.16
2022-08-28T04:28:12.457Z,98516.00
2022-08-28T04:31:15.959Z,98515.22
2022-08-28T04:34:18.774Z,98520.75
2022-08-28T04:37:21.489Z,98517.25
2022-08-28T04:40:27.247Z,98508.97
2022-08-28T04:43:31.454Z,98514.09
2022-08-28T04:46:34.115Z,98508.16
2022-08-28T04:49:37.106Z,98516.06
2022-08-28T04:52:39.842Z,98516.84
2022-08-28T04:55:53.858Z,98520.41
2022-08-28T04:58:58.840Z,98521.59
2022-08-28T05:02:01.596Z,98525.16
2022-08-28T05:05:04.938Z,98525.56
2022-08-28T05:08:07.625Z,98534.66
2022-08-28T05:11:12.407Z,98528.38
2022-08-28T05:14:17.095Z,98528.38
2022-08-28T05:17:19.813Z,98539.91
2022-08-28T05:20:22.508Z,98532.03
2022-08-28T05:23:25.717Z,98539.19
2022-08-28T05:26:30.122Z,98533.59
2022-08-28T05:29:34.387Z,98540.69
2022-08-28T05:32:37.030Z,98536.81
2022-08-28T05:35:41.573Z,98536.03
2022-08-28T05:38:45.522Z,98540.03
2022-08-28T05:41:48.150Z,98546.69
2022-08-28T05:44:54.681Z,98535.25
2022-08-28T05:47:57.571Z,98541.97
2022-08-28T05:51:01.916Z,98544.78
2022-08-28T05:54:05.939Z,98548.88
2022-08-28T05:57:08.633Z,98548.06
2022-08-28T06:00:13.808Z,98549.41
2022-08-28T06:03:16.413Z,98551.84
2022-08-28T06:06:19.245Z,98555.47
2022-08-28T06:09:28.812Z,98556.28
2022-08-28T06:12:32.325Z,98559.47
2022-08-28T06:15:42.645Z,98560.34
2022-08-28T06:18:46.231Z,98561.16
2022-08-28T06:21:51.477Z,98560.28
2022-08-28T06:24:54.450Z,98565.06
2022-08-28T06:27:57.202Z,98563.47
2022-08-28T06:31:23.177Z,98566.25
2022-08-28T06:34:26.968Z,98572.97
2022-08-28T06:37:29.406Z,98572.56
2022-08-28T06:40:32.059Z,98575.78
2022-08-28T06:43:34.757Z,98578.66
2022-08-28T06:46:39.091Z,98577.09
2022-08-28T06:49:41.829Z,98585.91
2022-08-28T06:52:44.637Z,98583.59
2022-08-28T06:55:52.656Z,98588.38
2022-08-28T06:58:56.696Z,98584.78
2022-08-28T07:02:00.790Z,98589.16
2022-08-28T07:05:03.585Z,98586.38
2022-08-28T07:08:06.276Z,98586.75
2022-08-28T07:11:14.304Z,98589.50
2022-08-28T07:14:16.851Z,98601.03
2022-08-28T07:17:21.111Z,98605.78
2022-08-28T07:20:23.864Z,98603.81
2022-08-28T07:23:26.840Z,98609.31
2022-08-28T07:26:29.656Z,98605.69
2022-08-28T07:29:35.401Z,98598.09
2022-08-28T07:32:39.622Z,98601.72
2022-08-28T07:35:44.612Z,98616.00
2022-08-28T07:38:47.743Z,98612.03
2022-08-28T07:41:50.374Z,98616.03
2022-08-28T07:44:54.565Z,98617.72
2022-08-28T07:47:58.764Z,98623.31
2022-08-28T07:51:01.408Z,98631.25
2022-08-28T07:54:04.895Z,98629.66
2022-08-28T07:57:10.563Z,98628.06
2022-08-28T08:00:14.262Z,98630.03
2022-08-28T08:03:18.489Z,98630.03
2022-08-28T08:06:21.401Z,98632.31
2022-08-28T08:09:24.389Z,98633.41
2022-08-28T08:12:27.928Z,98640.31
2022-08-28T08:15:34.494Z,98643.94
2022-08-28T08:18:39.032Z,98640.94
2022-08-28T08:21:43.274Z,98649.53
2022-08-28T08:24:46.184Z,98646.00
2022-08-28T08:27:48.843Z,98653.69
2022-08-28T08:31:03.912Z,98655.81
2022-08-28T08:34:09.888Z,98661.31
2022-08-28T08:37:13.400Z,98654.94
2022-08-28T08:40:19.488Z,98660.34
2022-08-28T08:43:23.931Z,98664.97
2022-08-28T08:46:32.493Z,98658.66
2022-08-28T08:49:38.187Z,98667.09
2022-08-28T08:52:53.884Z,98667.66
2022-08-28T08:55:58.254Z,98671.41
2022-08-28T08:59:01.427Z,98665.56
2022-08-28T09:02:05.233Z,98669.81
2022-08-28T09:05:13.448Z,98673.94
2022-08-28T09:08:32.432Z,98682.06
2022-08-28T09:11:44.742Z,98679.69
2022-08-28T09:14:57.236Z,98681.50
2022-08-28T09:18:09.506Z,98675.25
2022-08-28T09:21:29.399Z,98679.91
2022-08-28T09:24:33.833Z,98681.03
2022-08-28T09:27:37.904Z,98678.75
2022-08-28T09:30:43.808Z,98676.88
2022-08-28T09:33:48.498Z,98673.41
2022-08-28T09:36:53.793Z,98680.06
2022-08-28T09:40:15.223Z,98682.53
2022-08-28T09:43:27.969Z,98682.50
2022-08-28T09:46:32.574Z,98677.47
2022-08-28T09:49:35.247Z,98677.59
2022-08-28T09:52:39.463Z,98677.88
2022-08-28T09:55:51.319Z,98679.56
2022-08-28T09:58:59.552Z,98684.84
2022-08-28T10:02:14.545Z,98680.00
2022-08-28T10:05:20.497Z,98675.25
2022-08-28T10:08:42.292Z,98678.50
2022-08-28T10:11:49.812Z,98682.88
2022-08-28T10:14:57.305Z,98682.31
2022-08-28T10:18:15.189Z,98675.56
2022-08-28T10:21:23.278Z,98680.78
2022-08-28T10:24:37.989Z,98676.25
2022-08-28T10:27:53.184Z,98682.88
2022-08-28T10:31:09.905Z,98679.22
2022-08-28T10:34:27.945Z,98676.47
2022-08-28T10:37:40.019Z,98673.38
2022-08-28T10:40:52.434Z,98676.31
2022-08-28T10:43:55.836Z,98675.81
2022-08-28T10:46:59.150Z,98680.66
2022-08-28T10:50:06.625Z,98677.28
2022-08-28T10:53:12.834Z,98672.81
2022-08-28T10:56:20.815Z,98671.16
2022-08-28T10:59:23.785Z,98666.47
2022-08-28T11:02:27.762Z,98678.78
2022-08-28T11:05:32.653Z,98665.13
2022-08-28T11:08:37.219Z,98664.75
2022-08-28T11:11:45.094Z,98661.03
2022-08-28T11:14:49.504Z,98674.16
2022-08-28T11:17:53.714Z,98678.84
2022-08-28T11:20:58.869Z,98680.75
2022-08-28T11:24:05.036Z,98673.66
2022-08-28T11:27:22.646Z,98673.59
2022-08-28T11:30:33.052Z,98667.47
2022-08-28T11:33:39.842Z,98668.41
2022-08-28T11:37:04.590Z,98661.13
2022-08-28T11:40:20.625Z,98663.78
2022-08-28T11:43:37.340Z,98654.94
2022-08-28T11:46:41.165Z,98661.94
2022-08-28T11:49:45.809Z,98662.91
2022-08-28T11:53:18.429Z,98655.59
2022-08-28T11:56:37.635Z,98657.50
2022-08-28T12:00:02.787Z,98659.94
2022-08-28T12:03:13.690Z,98660.91
2022-08-28T12:06:16.668Z,98671.59
2022-08-28T12:09:40.063Z,98664.44
2022-08-28T12:12:54.135Z,98658.81
2022-08-28T12:16:06.231Z,98657.47
2022-08-28T12:19:09.364Z,98661.00
2022-08-28T12:22:13.714Z,98659.63
2022-08-28T12:25:27.910Z,98658.78
2022-08-28T12:28:32.849Z,98659.63
2022-08-28T12:32:14.940Z,98661.84
2022-08-28T12:35:21.002Z,98660.44
2022-08-28T12:38:23.726Z,98660.31
2022-08-28T12:41:26.310Z,98662.16
2022-08-28T12:44:30.957Z,98656.06
2022-08-28T12:47:35.862Z,98656.03
2022-08-28T12:50:39.731Z,98652.53
2022-08-28T12:53:44.549Z,98657.75
2022-08-28T12:56:47.308Z,98656.22
2022-08-28T12:59:50.264Z,98648.75
2022-08-28T13:02:56.272Z,98648.13
2022-08-28T13:06:04.000Z,98639.25
2022-08-28T13:09:08.654Z,98638.16
2022-08-28T13:12:21.344Z,98623.63
2022-08-28T13:15:42.930Z,98625.78
2022-08-28T13:18:51.312Z,98619.94
2022-08-28T13:22:00.257Z,98620.63
2022-08-28T13:25:03.858Z,98630.69
2022-08-28T13:28:13.879Z,98623.81
2022-08-28T13:31:23.955Z,98621.44
2022-08-28T13:34:29.371Z,98610.03
2022-08-28T13:37:44.448Z,98607.91
2022-08-28T13:40:58.317Z,98607.47
2022-08-28T13:44:01.253Z,98603.53
2022-08-28T13:47:06.705Z,98609.59
2022-08-28T13:50:11.007Z,98601.84
2022-08-28T13:53:14.218Z,98595.44
2022-08-28T13:56:17.010Z,98592.19
2022-08-28T13:59:20.760Z,98596.84
2022-08-28T14:02:41.540Z,98593.53
2022-08-28T14:05:45.540Z,98589.78
2022-08-28T14:08:48.194Z,98591.03
2022-08-28T14:11:50.902Z,98581.56
2022-08-28T14:14:53.697Z,98578.56
2022-08-28T14:17:56.494Z,98582.09
2022-08-28T14:21:00.479Z,98583.16
2022-08-28T14:24:03.587Z,98576.75
2022-08-28T14:27:06.293Z,98578.00
2022-08-28T14:30:10.253Z,98580.72
2022-08-28T14:33:16.860Z,98555.81
2022-08-28T14:36:22.975Z,98553.44
2022-08-28T14:39:27.446Z,98556.84
2022-08-28T14:42:30.315Z,98562.50
2022-08-28T14:45:32.990Z,98553.59
2022-08-28T14:48:35.796Z,98560.00
2022-08-28T14:51:42.091Z,98558.44
2022-08-28T14:54:44.705Z,98554.03
2022-08-28T14:57:48.838Z,98549.00
2022-08-28T15:00:54.416Z,98548.63
2022-08-28T15:03:57.797Z,98542.31
2022-08-28T15:07:03.958Z,98533.78
2022-08-28T15:10:07.810Z,98540.91
2022-08-28T15:13:12.646Z,98532.97
2022-08-28T15:16:17.894Z,98536.25
2022-08-28T15:19:23.296Z,98543.97
2022-08-28T15:22:27.640Z,98533.75
2022-08-28T15:25:30.224Z,98537.47
2022-08-28T15:28:33.117Z,98536.50
2022-08-28T15:31:38.303Z,98524.31
2022-08-28T15:34:42.610Z,98538.00
2022-08-28T15:37:46.591Z,98523.09
2022-08-28T15:41:07.166Z,98520.72
2022-08-28T15:44:14.438Z,98519.75
2022-08-28T15:47:18.136Z,98523.09
2022-08-28T15:50:21.285Z,98509.41
2022-08-28T15:53:26.428Z,98518.81
2022-08-28T15:56:29.222Z,98519.63
2022-08-28T15:59:48.454Z,98521.66
2022-08-28T16:02:51.860Z,98520.03
2022-08-28T16:05:55.044Z,98514.88
2022-08-28T16:08:59.091Z,98521.03
2022-08-28T16:12:01.909Z,98516.50
2022-08-28T16:15:05.226Z,98520.84
2022-08-28T16:18:09.378Z,98527.09
2022-08-28T16:21:12.960Z,98528.13
2022-08-28T16:24:17.279Z,98522.59
2022-08-28T16:27:19.938Z,98519.78
2022-08-28T16:30:24.688Z,98518.72
2022-08-28T16:33:28.000Z,98510.53
2022-08-28T16:36:31.090Z,98515.41
2022-08-28T16:39:35.282Z,98521.47
2022-08-28T16:42:38.092Z,98516.97
2022-08-28T16:45:43.943Z,98522.19
2022-08-28T16:48:47.140Z,98520.56
2022-08-28T16:51:49.987Z,98511.13
2022-08-28T16:54:54.565Z,98526.47
2022-08-28T16:57:57.246Z,98518.25
2022-08-28T17:01:00.051Z,98520.50
2022-08-28T17:04:03.358Z,98520.50
2022-08-28T17:07:06.215Z,98518.91
2022-08-28T17:10:13.345Z,98518.38
2022-08-28T17:13:16.572Z,98511.13
2022-08-28T17:16:20.489Z,98522.56
2022-08-28T17:19:24.836Z,98527.09
2022-08-28T17:22:33.101Z,98527.69
2022-08-28T17:25:37.390Z,98525.94
2022-08-28T17:28:40.087Z,98528.81
2022-08-28T17:31:42.576Z,98533.47
2022-08-28T17:34:45.337Z,98532.25
2022-08-28T17:37:47.976Z,98540.69
2022-08-28T17:40:53.288Z,98538.94
2022-08-28T17:43:56.140Z,98549.69
2022-08-28T17:46:58.855Z,98562.94
2022-08-28T17:50:01.775Z,98566.03
2022-08-28T17:53:04.978Z,98564.72
2022-08-28T17:56:09.456Z,98561.09
2022-08-28T17:59:13.148Z,98556.66
2022-08-28T18:02:16.882Z,98558.03
2022-08-28T18:05:19.555Z,98559.75
2022-08-28T18:08:22.543Z,98563.53
2022-08-28T18:11:26.428Z,98573.00
2022-08-28T18:14:29.210Z,98569.25
2022-08-28T18:17:31.676Z,98566.94
2022-08-28T18:20:34.527Z,98576.19
2022-08-28T18:23:37.320Z,98578.28
2022-08-28T18:26:41.473Z,98586.41
2022-08-28T18:29:44.534Z,98584.88
2022-08-28T18:32:47.398Z,98594.50
2022-08-28T18:35:50.108Z,98595.31
2022-08-28T18:38:54.337Z,98600.53
2022-08-28T18:41:59.129Z,98601.34
2022-08-28T18:45:02.114Z,98613.25
2022-08-28T18:48:05.575Z,98622.81
2022-08-28T18:51:09.193Z,98624.47
2022-08-28T18:54:13.012Z,98624.09
2022-08-28T18:57:18.571Z,98621.72
2022-08-28T19:00:21.820Z,98629.28
2022-08-28T19:03:24.504Z,98637.63
2022-08-28T19:06:27.225Z,98643.97
2022-08-28T19:09:32.401Z,98646.75
2022-08-28T19:12:37.586Z,98656.69
2022-08-28T19:15:40.220Z,98657.50
2022-08-28T19:18:42.998Z,98654.72
2022-08-28T19:21:45.593Z,98655.09
2022-08-28T19:24:49.231Z,98659.06
2022-08-28T19:27:56.268Z,98663.06
2022-08-28T19:31:01.321Z,98663.84
2022-08-28T19:34:04.153Z,98669.41
2022-08-28T19:37:06.854Z,98668.19
2022-08-28T19:40:11.297Z,98673.34
2022-08-28T19:43:16.743Z,98668.13
2022-08-28T19:46:20.630Z,98666.91
2022-08-28T19:49:23.786Z,98669.66
2022-08-28T19:52:26.374Z,98671.16
2022-08-28T19:55:29.485Z,98672.38
2022-08-28T19:58:33.498Z,98677.09
2022-08-28T20:01:39.580Z,98674.66
2022-08-28T20:04:42.403Z,98679.41
2022-08-28T20:07:45.517Z,98678.13
2022-08-28T20:10:48.107Z,98684.03
2022-08-28T20:13:53.078Z,98688.78
2022-08-28T20:16:55.942Z,98691.13
2022-08-28T20:20:02.403Z,98695.84
2022-08-28T20:23:06.372Z,98699.00
2022-08-28T20:26:10.641Z,98694.22
2022-08-28T20:29:15.148Z,98695.38
2022-08-28T20:32:17.798Z,98705.28
2022-08-28T20:35:22.147Z,98699.69
2022-08-28T20:38:27.383Z,98699.66
2022-08-28T20:41:30.053Z,98701.97
2022-08-28T20:44:34.197Z,98709.09
2022-08-28T20:47:36.779Z,98706.69
2022-08-28T20:50:39.320Z,98697.63
2022-08-28T20:53:42.065Z,98701.94
2022-08-28T20:56:44.585Z,98704.19
2022-08-28T20:59:48.769Z,98698.47
2022-08-28T21:02:51.797Z,98710.22
2022-08-28T21:05:54.337Z,98716.34
2022-08-28T21:08:57.132Z,98713.13
2022-08-28T21:11:59.907Z,98726.69
2022-08-28T21:15:05.151Z,98721.63
2022-08-28T21:18:08.214Z,98722.44
2022-08-28T21:21:13.261Z,98722.44
2022-08-28T21:24:18.706Z,98733.88
2022-08-28T21:27:22.021Z,98728.94
2022-08-28T21:30:29.748Z,98734.78
2022-08-28T21:33:32.596Z,98719.28
2022-08-28T21:36:35.377Z,98729.78
2022-08-28T21:39:38.396Z,98734.06
2022-08-28T21:42:41.359Z,98734.28
2022-08-28T21:45:45.518Z,98732.94
2022-08-28T21:48:49.420Z,98735.56
2022-08-28T21:51:52.007Z,98735.91
2022-08-28T21:54:57.943Z,98737.09
2022-08-28T21:58:00.716Z,98733.31
2022-08-28T22:01:04.995Z,98734.09
2022-08-28T22:04:07.704Z,98728.28
2022-08-28T22:07:11.978Z,98734.72
2022-08-28T22:10:14.996Z,98732.56
2022-08-28T22:13:17.984Z,98732.13
2022-08-28T22:16:22.614Z,98729.56
2022-08-28T22:19:25.374Z,98729.09
2022-08-28T22:22:45.645Z,98734.91
2022-08-28T22:25:48.451Z,98736.28
2022-08-28T22:28:51.177Z,98736.19
2022-08-28T22:31:55.404Z,98737.28
2022-08-28T22:34:58.111Z,98741.41
2022-08-28T22:38:00.737Z,98737.28
2022-08-28T22:41:03.405Z,98738.56
2022-08-28T22:44:06.966Z,98740.03
2022-08-28T22:47:11.349Z,98739.28
2022-08-28T22:50:13.954Z,98731.97
2022-08-28T22:53:18.019Z,98729.09
2022-08-28T22:56:21.169Z,98735.75
2022-08-28T22:59:23.953Z,98743.09
2022-08-28T23:02:28.891Z,98735.06
2022-08-28T23:05:33.460Z,98741.59
2022-08-28T23:08:36.233Z,98757.72
2022-08-28T23:11:39.197Z,98753.81
2022-08-28T23:14:44.260Z,98757.34
2022-08-28T23:17:51.974Z,98751.84
2022-08-28T23:20:55.184Z,98751.44
2022-08-28T23:23:58.859Z,98752.97
2022-08-28T23:27:19.390Z,98748.25
2022-08-28T23:30:24.885Z,98743.75
2022-08-28T23:33:29.641Z,98746.47
2022-08-28T23:36:32.421Z,98747.47
2022-08-28T23:39:38.268Z,98750.59
2022-08-28T23:42:40.934Z,98741.03
2022-08-28T23:45:44.424Z,98742.69
2022-08-28T23:48:49.627Z,98740.16
2022-08-28T23:51:52.631Z,98741.31
2022-08-28T23:54:55.267Z,98736.91
2022-08-28T23:57:57.896Z,98736.81
